Time;durP1;ratioP1;P1;durP2;ratioP2;P2;SDS_P1;SDS_P2;PMS_P1;PMS_P2;Temp;Humidity;BMP_temperature;BMP_pressure;BME280_temperature;BME280_humidity;BME280_pressure;Samples;Min_cycle;Max_cycle;Signal;HPM_P1;HPM_P2
2023/10/17 00:01:12;;;;;;;29.63;28.27;;;;;;;8.31;100.00;102163.63;5032008;28;20436;-43
2023/10/17 00:03:40;;;;;;;29.93;28.73;;;;;;;8.27;100.00;102164.91;5041040;28;20476;-42
2023/10/17 00:06:08;;;;;;;32.63;31.13;;;;;;;8.19;100.00;102154.13;5025547;28;20510;-44
2023/10/17 00:08:36;;;;;;;32.13;30.30;;;;;;;8.09;100.00;102148.06;5014534;28;20981;-45
2023/10/17 00:11:06;;;;;;;32.50;30.90;;;;;;;8.00;100.00;102146.28;5030700;28;20851;-42
2023/10/17 00:13:39;;;;;;;31.43;30.13;;;;;;;7.89;100.00;102146.44;5017866;28;20563;-44
2023/10/17 00:16:09;;;;;;;32.13;30.87;;;;;;;7.74;100.00;102146.06;5026289;28;20435;-44
2023/10/17 00:18:37;;;;;;;31.80;30.60;;;;;;;7.62;100.00;102149.84;5030060;28;20441;-43
2023/10/17 00:21:10;;;;;;;33.50;32.00;;;;;;;7.49;100.00;102148.50;5030728;28;20458;-43
2023/10/17 00:23:39;;;;;;;32.33;31.00;;;;;;;7.40;100.00;102152.84;5021167;28;20463;-42
2023/10/17 00:26:08;;;;;;;31.87;30.57;;;;;;;7.31;100.00;102143.09;5022546;28;20445;-42
2023/10/17 00:28:36;;;;;;;33.60;32.10;;;;;;;7.22;100.00;102155.38;5027015;28;20450;-44
2023/10/17 00:31:05;;;;;;;33.70;32.07;;;;;;;7.14;100.00;102154.38;5026333;28;20441;-44
2023/10/17 00:33:37;;;;;;;33.57;32.07;;;;;;;7.07;100.00;102154.13;5016997;28;20480;-44
2023/10/17 00:36:06;;;;;;;33.13;31.67;;;;;;;7.01;100.00;102149.38;5025850;28;20506;-42
2023/10/17 00:38:37;;;;;;;33.73;32.30;;;;;;;6.96;100.00;102154.25;5025824;28;20543;-42
2023/10/17 00:41:05;;;;;;;32.97;31.30;;;;;;;6.90;100.00;102144.19;5033632;28;20527;-42
2023/10/17 00:43:37;;;;;;;32.90;30.90;;;;;;;6.85;100.00;102154.38;5033129;28;20463;-42
2023/10/17 00:46:07;;;;;;;31.57;30.27;;;;;;;6.78;100.00;102147.94;5017686;28;20448;-43
2023/10/17 00:48:37;;;;;;;32.30;30.80;;;;;;;6.70;100.00;102147.78;5021923;28;20535;-44
2023/10/17 00:51:08;;;;;;;30.97;29.50;;;;;;;6.57;100.00;102132.16;5022312;28;20441;-46
2023/10/17 00:53:40;;;;;;;31.67;30.17;;;;;;;6.49;100.00;102144.41;5017342;28;20893;-42
2023/10/17 00:56:08;;;;;;;31.67;30.37;;;;;;;6.41;100.00;102131.84;5033604;28;20478;-42
2023/10/17 00:58:36;;;;;;;31.33;29.90;;;;;;;6.33;100.00;102136.97;5017585;28;20441;-42
2023/10/17 01:01:15;;;;;;;31.37;29.77;;;;;;;6.25;100.00;102131.50;5033768;28;20816;-44
2023/10/17 01:03:45;;;;;;;30.53;29.23;;;;;;;6.20;100.00;102139.03;5031191;28;20474;-42
2023/10/17 01:06:35;;;;;;;31.13;29.93;;;;;;;6.12;100.00;102123.78;5032921;28;20444;-44
2023/10/17 01:09:17;;;;;;;32.13;30.70;;;;;;;6.07;100.00;102131.31;5013840;28;20475;-43
2023/10/17 01:11:47;;;;;;;32.43;31.17;;;;;;;6.00;100.00;102130.16;5017930;28;20462;-46
2023/10/17 01:14:18;;;;;;;31.30;30.10;;;;;;;5.96;100.00;102127.94;5015730;28;21003;-45
2023/10/17 01:16:47;;;;;;;32.50;31.00;;;;;;;5.89;100.00;102127.63;5018495;28;20494;-46
2023/10/17 01:19:19;;;;;;;30.90;29.60;;;;;;;5.83;100.00;102130.75;5024395;28;20809;-46
2023/10/17 01:21:47;;;;;;;32.73;31.20;;;;;;;5.77;100.00;102128.63;5026113;28;20460;-41
2023/10/17 01:24:16;;;;;;;32.10;30.80;;;;;;;5.72;100.00;102135.28;5015753;28;20437;-44
2023/10/17 01:26:45;;;;;;;31.73;30.33;;;;;;;5.66;100.00;102141.97;5021274;28;20613;-46
2023/10/17 01:29:13;;;;;;;34.23;32.73;;;;;;;5.61;100.00;102138.88;5021862;28;20473;-48
2023/10/17 01:31:43;;;;;;;32.90;31.40;;;;;;;5.57;100.00;102140.09;5036822;28;20821;-42
2023/10/17 01:34:11;;;;;;;33.00;31.43;;;;;;;5.51;100.00;102140.59;5027503;28;20816;-45
2023/10/17 01:36:39;;;;;;;31.93;30.43;;;;;;;5.46;100.00;102134.88;5028849;28;20433;-44
2023/10/17 01:39:08;;;;;;;34.23;32.63;;;;;;;5.41;100.00;102132.59;5029127;28;20533;-45
2023/10/17 01:41:46;;;;;;;33.50;32.03;;;;;;;5.35;100.00;102135.75;5032706;28;20557;-45
2023/10/17 01:44:14;;;;;;;33.77;32.07;;;;;;;5.32;100.00;102133.38;5024357;28;20444;-48
2023/10/17 01:46:43;;;;;;;33.00;31.60;;;;;;;5.29;100.00;102130.16;5028376;28;20520;-46
2023/10/17 01:49:13;;;;;;;33.63;32.03;;;;;;;5.25;100.00;102134.88;5021075;28;20527;-46
2023/10/17 01:51:42;;;;;;;34.73;33.13;;;;;;;5.20;100.00;102129.13;5020469;28;20464;-47
2023/10/17 01:54:11;;;;;;;36.23;34.50;;;;;;;5.18;100.00;102138.16;5019614;28;20506;-45
2023/10/17 01:56:40;;;;;;;35.30;33.70;;;;;;;5.16;100.00;102130.34;5033559;28;20886;-44
2023/10/17 01:59:13;;;;;;;35.30;33.70;;;;;;;5.12;100.00;102128.91;5040867;28;20542;-44
2023/10/17 02:01:41;;;;;;;35.03;33.27;;;;;;;5.10;100.00;102130.03;5024833;28;20459;-43
2023/10/17 02:04:13;;;;;;;35.57;34.07;;;;;;;5.09;100.00;102136.25;5040558;28;20468;-47
2023/10/17 02:06:42;;;;;;;36.50;34.90;;;;;;;5.06;100.00;102131.22;5040806;28;20440;-45
2023/10/17 02:09:23;;;;;;;36.87;35.17;;;;;;;5.03;100.00;102127.03;5040666;28;20440;-45
2023/10/17 02:11:54;;;;;;;35.53;33.87;;;;;;;4.99;100.00;102144.94;5032269;28;20871;-44
2023/10/17 02:14:23;;;;;;;36.60;34.87;;;;;;;4.98;100.00;102138.00;5040199;28;20432;-49
2023/10/17 02:16:50;;;;;;;38.87;37.27;;;;;;;4.96;100.00;102144.38;5032126;28;20522;-46
2023/10/17 02:19:19;;;;;;;37.03;35.60;;;;;;;4.93;100.00;102141.97;5040485;28;20784;-48
2023/10/17 02:21:50;;;;;;;39.10;37.50;;;;;;;4.91;100.00;102151.84;5031751;28;20463;-44
2023/10/17 02:24:20;;;;;;;41.07;39.07;;;;;;;4.89;100.00;102138.75;5031944;28;20436;-47
2023/10/17 02:26:55;;;;;;;38.03;35.63;;;;;;;4.87;100.00;102142.47;5031898;28;20440;-44
2023/10/17 02:29:26;;;;;;;38.73;36.90;;;;;;;4.84;100.00;102146.22;5032201;28;20899;-44
2023/10/17 02:31:54;;;;;;;39.13;37.43;;;;;;;4.84;100.00;102148.00;5031581;28;20456;-45
2023/10/17 02:34:23;;;;;;;38.40;36.73;;;;;;;4.84;100.00;102148.00;5040030;28;20952;-47
2023/10/17 02:36:52;;;;;;;38.60;37.10;;;;;;;4.82;100.00;102150.78;5031031;28;20436;-44
2023/10/17 02:39:20;;;;;;;41.13;39.10;;;;;;;4.79;100.00;102152.84;5031893;28;20518;-44
2023/10/17 02:41:57;;;;;;;39.27;37.50;;;;;;;4.79;100.00;102144.91;5031420;28;20468;-44
2023/10/17 02:44:27;;;;;;;38.03;36.40;;;;;;;4.75;100.00;102143.50;5031445;28;20986;-44
2023/10/17 02:46:58;;;;;;;40.47;38.77;;;;;;;4.75;100.00;102146.97;5031705;28;20955;-44
2023/10/17 02:49:27;;;;;;;40.57;38.77;;;;;;;4.77;100.00;102146.84;5039801;28;20516;-45
2023/10/17 02:51:55;;;;;;;40.27;38.40;;;;;;;4.82;100.00;102155.22;5031416;28;20544;-48
2023/10/17 02:54:27;;;;;;;44.07;42.27;;;;;;;4.88;100.00;102160.88;5031646;28;20432;-44
2023/10/17 02:56:56;;;;;;;43.60;41.60;;;;;;;4.97;100.00;102162.75;5039899;28;20468;-47
2023/10/17 02:59:24;;;;;;;45.10;42.70;;;;;;;5.07;100.00;102169.94;5031799;28;20842;-45
2023/10/17 03:01:54;;;;;;;45.70;43.50;;;;;;;5.14;100.00;102161.34;5036251;28;20516;-46
2023/10/17 03:04:24;;;;;;;44.73;42.90;;;;;;;5.21;100.00;102164.34;5033528;28;21174;-46
2023/10/17 03:06:55;;;;;;;44.20;42.17;;;;;;;5.30;100.00;102168.88;5039985;28;20452;-43
2023/10/17 03:12:09;;;;;;;44.70;42.87;;;;;;;5.40;100.00;102157.41;5028741;28;20952;-46
2023/10/17 03:14:49;;;;;;;45.50;43.10;;;;;;;5.43;100.00;102157.16;5031042;28;20433;-44
2023/10/17 03:17:19;;;;;;;44.07;41.83;;;;;;;5.43;100.00;102156.31;5031174;28;20990;-49
2023/10/17 03:19:46;;;;;;;45.10;43.20;;;;;;;5.43;100.00;102159.78;5031537;28;20431;-45
2023/10/17 03:22:16;;;;;;;46.67;44.67;;;;;;;5.43;100.00;102162.44;5030926;28;20467;-46
2023/10/17 03:24:44;;;;;;;47.37;45.10;;;;;;;5.45;100.00;102162.28;5031284;28;20440;-44
2023/10/17 03:27:23;;;;;;;46.13;44.17;;;;;;;5.48;100.00;102159.38;5039776;28;20478;-44
2023/10/17 03:29:51;;;;;;;48.70;46.80;;;;;;;5.51;100.00;102156.50;5031467;28;20814;-45
2023/10/17 03:32:23;;;;;;;52.10;50.00;;;;;;;5.56;100.00;102156.94;5037063;28;20471;-47
2023/10/17 03:34:56;;;;;;;51.20;49.10;;;;;;;5.61;100.00;102164.50;5031370;28;20432;-44
2023/10/17 03:37:32;;;;;;;54.20;51.83;;;;;;;5.67;100.00;102158.69;5037679;28;20430;-45
2023/10/17 03:40:15;;;;;;;50.07;47.97;;;;;;;5.71;100.00;102155.63;5031485;28;20442;-44
2023/10/17 03:42:45;;;;;;;53.50;51.13;;;;;;;5.78;100.00;102161.25;5034310;28;20479;-45
2023/10/17 03:45:16;;;;;;;52.30;50.30;;;;;;;5.81;100.00;102145.94;5034976;28;20507;-45
2023/10/17 03:47:48;;;;;;;52.87;50.70;;;;;;;5.86;100.00;102154.34;5039282;28;20436;-45
2023/10/17 03:50:31;;;;;;;53.80;51.23;;;;;;;5.90;100.00;102158.41;5031013;28;20436;-44
2023/10/17 03:53:06;;;;;;;53.50;50.97;;;;;;;5.93;100.00;102155.50;5038301;28;21029;-46
2023/10/17 03:55:36;;;;;;;55.87;53.17;;;;;;;5.96;100.00;102157.91;5030970;28;20478;-47
2023/10/17 03:58:18;;;;;;;51.07;49.00;;;;;;;5.99;100.00;102160.28;5031160;28;20469;-44
2023/10/17 04:00:46;;;;;;;52.97;50.70;;;;;;;6.00;100.00;102161.13;5039529;28;20850;-46
2023/10/17 04:03:21;;;;;;;54.53;51.73;;;;;;;6.01;100.00;102155.69;5030383;28;20468;-47
2023/10/17 04:05:51;;;;;;;50.43;48.20;;;;;;;6.00;100.00;102153.19;5030765;28;20431;-46
2023/10/17 04:08:26;;;;;;;50.20;48.00;;;;;;;5.99;100.00;102149.69;5030899;28;20523;-45
2023/10/17 04:11:08;;;;;;;50.60;48.40;;;;;;;6.01;100.00;102142.44;5030879;28;20827;-48
2023/10/17 04:13:37;;;;;;;53.80;51.13;;;;;;;6.04;100.00;102143.97;5030251;28;20464;-50
2023/10/17 04:16:09;;;;;;;53.97;51.60;;;;;;;6.08;100.00;102148.06;5030567;28;20555;-45
2023/10/17 04:18:38;;;;;;;56.77;54.37;;;;;;;6.11;100.00;102138.03;5042758;28;20757;-46
2023/10/17 04:21:17;;;;;;;52.70;50.60;;;;;;;6.13;100.00;102145.81;5034659;28;20441;-48
2023/10/17 04:23:49;;;;;;;55.73;53.33;;;;;;;6.18;100.00;102150.75;5034196;28;20456;-47
2023/10/17 04:26:19;;;;;;;53.83;51.40;;;;;;;6.21;100.00;102147.81;5034488;28;20437;-45
2023/10/17 04:28:49;;;;;;;53.73;51.23;;;;;;;6.23;100.00;102146.72;5026777;28;20521;-48
2023/10/17 04:31:25;;;;;;;54.90;52.40;;;;;;;6.29;100.00;102138.22;5042501;28;20486;-47
2023/10/17 04:34:06;;;;;;;55.00;52.73;;;;;;;6.33;100.00;102139.63;5036980;28;20892;-45
2023/10/17 04:36:37;;;;;;;57.60;54.87;;;;;;;6.38;100.00;102145.38;5043646;28;20477;-44
2023/10/17 04:39:18;;;;;;;53.27;51.10;;;;;;;6.43;100.00;102139.66;5040374;28;20802;-43
2023/10/17 04:44:36;;;;;;;58.27;55.53;;;;;;;6.51;100.00;102145.13;5042126;28;20523;-44
2023/10/17 04:49:54;;;;;;;55.83;53.60;;;;;;;6.59;100.00;102139.97;5033724;28;20515;-43
2023/10/17 04:52:28;;;;;;;57.60;55.00;;;;;;;6.63;100.00;102146.69;5033275;28;21005;-46
2023/10/17 04:55:09;;;;;;;57.27;54.77;;;;;;;6.65;100.00;102134.13;5042013;28;20460;-43
2023/10/17 04:57:55;;;;;;;56.47;53.90;;;;;;;6.68;100.00;102140.00;5041946;28;20476;-47
2023/10/17 05:00:43;;;;;;;55.90;53.40;;;;;;;6.73;100.00;102136.91;5033635;28;20867;-45
2023/10/17 05:03:26;;;;;;;56.40;54.10;;;;;;;6.75;100.00;102139.44;5031151;28;20827;-43
2023/10/17 05:09:00;;;;;;;54.80;52.40;;;;;;;6.81;100.00;102134.41;5031173;28;20459;-45
2023/10/17 06:18:17;;;;;;;38.53;36.70;;;;;;;7.56;100.00;102170.81;5037823;28;20455;-45
2023/10/17 06:26:46;;;;;;;35.60;33.80;;;;;;;7.64;100.00;102186.91;5037028;28;20486;-44
2023/10/17 06:31:54;;;;;;;35.87;33.57;;;;;;;7.73;100.00;102184.22;5031515;28;20491;-43
2023/10/17 06:34:22;;;;;;;33.97;32.27;;;;;;;7.73;100.00;102183.38;5031848;28;20447;-44
2023/10/17 06:36:58;;;;;;;32.03;30.63;;;;;;;7.76;100.00;102183.91;5031636;28;21050;-43
2023/10/17 06:39:36;;;;;;;32.50;31.00;;;;;;;7.78;100.00;102181.13;5031588;28;20536;-43
2023/10/17 06:42:14;;;;;;;34.60;32.73;;;;;;;7.82;100.00;102177.22;5037598;28;20456;-43
2023/10/17 06:44:54;;;;;;;33.90;32.13;;;;;;;7.88;100.00;102171.34;5039843;28;20460;-45
2023/10/17 06:47:29;;;;;;;33.80;32.20;;;;;;;7.96;100.00;102181.22;5031558;28;20467;-46
2023/10/17 06:52:57;;;;;;;31.90;30.30;;;;;;;8.18;100.00;102178.22;5031146;28;20886;-46
2023/10/17 06:55:29;;;;;;;33.20;31.23;;;;;;;8.31;100.00;102181.41;5039491;28;20463;-45
2023/10/17 06:58:08;;;;;;;32.47;30.80;;;;;;;8.38;100.00;102179.84;5031646;28;20859;-43
2023/10/17 07:03:25;;;;;;;30.70;29.10;;;;;;;8.65;100.00;102181.66;5035500;28;21063;-43
2023/10/17 07:06:04;;;;;;;31.13;29.63;;;;;;;8.75;100.00;102183.25;5042776;28;20425;-46
2023/10/17 07:08:36;;;;;;;30.53;28.90;;;;;;;8.81;100.00;102193.28;5034273;28;20432;-47
2023/10/17 07:11:09;;;;;;;31.20;29.70;;;;;;;8.88;100.00;102197.03;5031428;28;20502;-43
2023/10/17 07:13:54;;;;;;;31.60;30.10;;;;;;;8.94;100.00;102194.75;5030799;28;20479;-46
2023/10/17 07:16:32;;;;;;;31.83;30.03;;;;;;;8.96;100.00;102193.59;5031136;28;20432;-46
2023/10/17 07:19:46;;;;;;;31.07;29.57;;;;;;;8.98;100.00;102186.34;5031431;28;20506;-47
2023/10/17 07:22:05;;;;;;;32.10;30.50;;;;;;;9.02;100.00;102187.69;5034902;28;20451;-45
2023/10/17 07:24:35;;;;;;;30.97;29.07;;;;;;;9.09;100.00;102182.59;5033612;28;20808;-46
2023/10/17 07:27:11;;;;;;;30.77;29.07;;;;;;;9.15;100.00;102189.97;5031211;28;20502;-46
2023/10/17 07:29:45;;;;;;;30.43;28.97;;;;;;;9.25;100.00;102177.44;5039771;28;20796;-45
2023/10/17 07:32:16;;;;;;;31.23;29.80;;;;;;;9.34;100.00;102187.16;5038895;28;20472;-44
2023/10/17 07:34:45;;;;;;;31.17;29.60;;;;;;;9.44;100.00;102186.06;5033442;28;20530;-43
2023/10/17 07:37:22;;;;;;;31.80;30.30;;;;;;;9.52;100.00;102181.81;5033144;28;21025;-46
2023/10/17 07:42:41;;;;;;;33.63;31.93;;;;;;;9.71;100.00;102177.13;5040097;28;20451;-43
2023/10/17 07:45:17;;;;;;;33.17;31.57;;;;;;;9.77;100.00;102181.81;5031186;28;20428;-44
2023/10/17 07:47:52;;;;;;;34.27;32.37;;;;;;;9.84;100.00;102179.38;5030570;28;20428;-44
2023/10/17 07:50:20;;;;;;;34.50;32.67;;;;;;;9.92;100.00;102174.94;5030916;28;20440;-45
2023/10/17 07:52:51;;;;;;;34.87;33.00;;;;;;;10.01;100.00;102178.47;5041086;28;20470;-45
2023/10/17 07:55:22;;;;;;;33.60;32.10;;;;;;;10.13;100.00;102169.25;5034552;28;20432;-48
2023/10/17 07:57:53;;;;;;;33.53;31.90;;;;;;;10.24;100.00;102176.16;5034683;28;20476;-47
2023/10/17 08:00:33;;;;;;;33.80;32.30;;;;;;;10.30;100.00;102170.19;5034874;28;20526;-48
2023/10/17 08:03:07;;;;;;;33.73;32.03;;;;;;;10.38;100.00;102171.03;5026950;28;20467;-45
2023/10/17 08:05:44;;;;;;;33.40;31.70;;;;;;;10.43;100.00;102170.53;5034629;28;20442;-44
2023/10/17 08:08:14;;;;;;;34.13;32.33;;;;;;;10.57;100.00;102182.44;5042617;28;20424;-44
2023/10/17 08:10:45;;;;;;;34.60;32.80;;;;;;;10.65;100.00;102177.97;5035949;28;20613;-47
2023/10/17 08:13:14;;;;;;;35.60;33.70;;;;;;;10.72;100.00;102178.97;5045765;28;20466;-47
2023/10/17 08:15:52;;;;;;;36.27;34.57;;;;;;;10.83;100.00;102172.50;5044295;28;20543;-43
2023/10/17 08:18:24;;;;;;;35.90;34.20;;;;;;;10.92;100.00;102179.53;5034335;28;20475;-46
2023/10/17 08:23:42;;;;;;;37.13;35.13;;;;;;;11.10;100.00;102175.75;5041446;28;20459;-47
2023/10/17 08:26:12;;;;;;;36.00;34.10;;;;;;;11.14;100.00;102181.56;5056181;22;21060;-38
2023/10/17 08:28:50;;;;;;;36.90;34.93;;;;;;;11.13;100.00;102182.56;5033720;28;20550;-42
2023/10/17 08:31:23;;;;;;;37.27;35.53;;;;;;;11.23;100.00;102177.91;5033823;28;20461;-43
2023/10/17 08:34:05;;;;;;;35.60;33.93;;;;;;;11.30;100.00;102173.56;5032704;28;20475;-44
2023/10/17 08:36:43;;;;;;;37.50;35.50;;;;;;;11.43;100.00;102170.41;5033269;28;20517;-42
2023/10/17 08:39:32;;;;;;;38.37;36.27;;;;;;;11.59;100.00;102168.53;5025460;28;20503;-42
2023/10/17 08:42:05;;;;;;;37.27;35.47;;;;;;;11.72;100.00;102169.91;5017608;28;21036;-47
2023/10/17 08:44:38;;;;;;;39.67;37.87;;;;;;;11.81;100.00;102160.88;5016701;28;20437;-42
2023/10/17 08:47:07;;;;;;;39.50;37.30;;;;;;;11.88;100.00;102160.03;5013838;28;20461;-42
2023/10/17 08:49:38;;;;;;;39.57;37.67;;;;;;;11.93;100.00;102163.03;5022062;28;20436;-42
2023/10/17 08:52:07;;;;;;;38.60;36.70;;;;;;;11.98;100.00;102159.81;5026035;28;20533;-43
2023/10/17 08:54:35;;;;;;;40.17;38.27;;;;;;;12.00;100.00;102152.47;5016400;28;20441;-43
2023/10/17 08:57:03;;;;;;;40.97;39.10;;;;;;;12.03;100.00;102160.16;5013755;28;20457;-44
2023/10/17 08:59:59;;;;;;;41.43;39.03;;;;;;;11.96;100.00;102156.50;5013556;28;20592;-40
2023/10/17 09:02:30;;;;;;;40.13;38.20;;;;;;;11.93;100.00;102159.50;5019827;28;20470;-42
2023/10/17 09:05:03;;;;;;;41.07;39.17;;;;;;;11.84;100.00;102164.03;5013520;28;20863;-48
2023/10/17 09:07:42;;;;;;;39.67;37.60;;;;;;;11.75;100.00;102157.03;5021723;28;20468;-43
2023/10/17 09:10:18;;;;;;;39.13;36.77;;;;;;;11.67;100.00;102154.34;5013299;28;20449;-47
2023/10/17 09:13:14;;;;;;;38.43;36.57;;;;;;;11.65;100.00;102157.19;5022844;28;20462;-43
2023/10/17 09:15:35;;;;;;;38.17;36.27;;;;;;;11.96;100.00;102153.81;5016152;28;20947;-39
2023/10/17 09:18:07;;;;;;;41.03;39.03;;;;;;;12.15;100.00;102159.63;5017460;28;20472;-43
2023/10/17 09:20:37;;;;;;;37.83;36.13;;;;;;;12.37;100.00;102152.66;5016362;28;20437;-42
2023/10/17 09:23:22;;;;;;;39.00;37.10;;;;;;;12.70;100.00;102154.16;5012918;28;20512;-44
2023/10/17 09:25:55;;;;;;;37.67;35.47;;;;;;;12.97;100.00;102149.31;5013414;28;20821;-44
2023/10/17 09:28:25;;;;;;;37.27;35.20;;;;;;;13.12;100.00;102143.03;5020066;28;20437;-42
2023/10/17 09:31:03;;;;;;;39.10;37.07;;;;;;;13.48;100.00;102142.41;5024903;28;20795;-42
2023/10/17 09:33:32;;;;;;;39.80;37.70;;;;;;;13.81;100.00;102139.22;5016494;28;20810;-42
2023/10/17 09:36:04;;;;;;;40.20;38.50;;;;;;;13.99;100.00;102135.34;5020675;28;20828;-44
2023/10/17 09:38:32;;;;;;;39.27;37.40;;;;;;;14.08;100.00;102139.59;5028882;28;20476;-44
2023/10/17 09:41:00;;;;;;;39.87;38.10;;;;;;;14.09;100.00;102135.91;5013026;28;20477;-42
2023/10/17 09:43:45;;;;;;;39.90;38.30;;;;;;;14.06;100.00;102137.13;5018865;28;20471;-42
2023/10/17 09:46:13;;;;;;;39.53;37.93;;;;;;;13.92;100.00;102140.59;5032052;28;20538;-46
2023/10/17 09:48:43;;;;;;;40.30;38.50;;;;;;;13.76;100.00;102132.75;5031508;28;20522;-43
2023/10/17 09:51:20;;;;;;;42.07;40.07;;;;;;;13.70;100.00;102138.84;5026183;28;20779;-42
2023/10/17 09:53:52;;;;;;;39.47;37.77;;;;;;;13.60;100.00;102130.22;5031793;28;20823;-41
2023/10/17 09:56:26;;;;;;;39.67;37.43;;;;;;;13.51;100.00;102132.16;5032323;28;20459;-41
2023/10/17 09:58:59;;;;;;;38.83;36.93;;;;;;;13.43;100.00;102134.09;5032014;28;20922;-44
2023/10/17 10:01:29;;;;;;;38.73;36.73;;;;;;;13.39;100.00;102130.09;5023998;28;20554;-46
2023/10/17 10:03:58;;;;;;;38.07;36.30;;;;;;;13.32;100.00;102141.53;5031496;28;20460;-47
2023/10/17 10:06:30;;;;;;;37.03;35.30;;;;;;;13.45;100.00;102132.03;5031876;28;20460;-45
2023/10/17 10:09:27;;;;;;;37.90;36.10;;;;;;;13.67;100.00;102131.16;5028767;28;20936;-43
2023/10/17 10:11:58;;;;;;;39.80;37.93;;;;;;;14.19;100.00;102131.06;5022912;28;20472;-43
2023/10/17 10:14:40;;;;;;;39.83;37.93;;;;;;;14.46;100.00;102138.47;5031179;28;20498;-40
2023/10/17 10:17:09;;;;;;;39.80;38.20;;;;;;;14.63;100.00;102131.88;5031863;28;20506;-47
2023/10/17 10:20:04;;;;;;;37.47;35.90;;;;;;;14.67;100.00;102127.78;5023419;28;20480;-40
2023/10/17 10:22:56;;;;;;;38.13;36.63;;;;;;;14.61;100.00;102128.53;5031342;28;20459;-45
2023/10/17 10:25:24;;;;;;;38.70;36.40;;;;;;;14.51;100.00;102128.03;5026114;28;20819;-48
2023/10/17 10:28:24;;;;;;;39.10;37.30;;;;;;;14.51;100.00;102129.88;5031493;28;20462;-42
2023/10/17 10:30:52;;;;;;;36.77;35.30;;;;;;;14.36;100.00;102119.16;5031696;28;20439;-45
2023/10/17 10:33:21;;;;;;;38.57;36.87;;;;;;;14.31;100.00;102121.53;5031265;28;20460;-43
2023/10/17 10:35:49;;;;;;;37.97;36.20;;;;;;;14.18;100.00;102119.53;5031294;28;20464;-44
2023/10/17 10:38:18;;;;;;;37.90;36.10;;;;;;;14.19;100.00;102123.84;5031040;28;20436;-43
2023/10/17 10:40:46;;;;;;;37.10;35.70;;;;;;;14.02;100.00;102118.88;5031920;28;20811;-45
2023/10/17 10:43:19;;;;;;;38.70;36.70;;;;;;;14.10;100.00;102129.50;5031157;28;20456;-45
2023/10/17 10:45:50;;;;;;;35.77;34.20;;;;;;;14.05;100.00;102127.38;5031077;28;20858;-43
2023/10/17 10:48:21;;;;;;;36.90;35.30;;;;;;;14.19;100.00;102131.06;5031353;28;20467;-43
2023/10/17 10:50:55;;;;;;;37.83;36.23;;;;;;;14.30;100.00;102135.97;5031461;28;20432;-38
2023/10/17 10:53:28;;;;;;;38.77;36.93;;;;;;;14.36;100.00;102124.53;5030937;28;20637;-42
2023/10/17 10:55:59;;;;;;;39.33;37.33;;;;;;;14.53;100.00;102114.41;5031292;28;20488;-44
2023/10/17 10:58:29;;;;;;;40.73;38.83;;;;;;;14.74;100.00;102117.94;5031427;28;20526;-44
2023/10/17 11:00:59;;;;;;;38.87;36.97;;;;;;;15.02;100.00;102109.13;5031410;28;20831;-48
2023/10/17 11:03:27;;;;;;;38.70;36.80;;;;;;;15.10;100.00;102104.47;5030787;28;21002;-45
2023/10/17 11:05:58;;;;;;;36.37;34.77;;;;;;;15.10;100.00;102099.09;5030893;28;20456;-42
2023/10/17 11:08:35;;;;;;;36.13;34.30;;;;;;;14.95;100.00;102099.16;5031283;28;20446;-45
2023/10/17 11:11:04;;;;;;;36.23;34.63;;;;;;;14.71;100.00;102110.28;5031286;28;20687;-44
2023/10/17 11:13:34;;;;;;;36.77;35.23;;;;;;;14.42;100.00;102107.69;5030821;28;20502;-43
2023/10/17 11:16:04;;;;;;;34.47;33.07;;;;;;;14.19;100.00;102107.75;5030861;28;20479;-46
2023/10/17 11:18:35;;;;;;;35.07;33.57;;;;;;;14.09;100.00;102109.91;5031433;28;20436;-45
2023/10/17 11:21:05;;;;;;;33.57;32.27;;;;;;;14.04;100.00;102095.38;5030992;28;20432;-43
2023/10/17 11:23:35;;;;;;;32.13;30.93;;;;;;;14.07;100.00;102092.31;5030628;28;20491;-42
2023/10/17 11:26:09;;;;;;;33.13;31.80;;;;;;;14.20;100.00;102097.88;5032088;28;20460;-43
2023/10/17 11:28:53;;;;;;;33.93;32.70;;;;;;;14.31;100.00;102092.00;5035359;28;20486;-45
2023/10/17 11:31:22;;;;;;;34.30;33.10;;;;;;;14.34;100.00;102095.19;5035324;28;20515;-39
2023/10/17 11:33:54;;;;;;;34.33;33.00;;;;;;;14.29;100.00;102086.00;5034744;28;20486;-41
2023/10/17 11:36:23;;;;;;;33.37;32.27;;;;;;;14.38;100.00;102087.59;5034709;28;20456;-39
2023/10/17 11:38:58;;;;;;;33.93;32.77;;;;;;;14.24;100.00;102081.22;5034748;28;20432;-42
2023/10/17 11:41:30;;;;;;;34.63;33.33;;;;;;;14.26;100.00;102081.84;5034777;28;20482;-43
2023/10/17 11:44:04;;;;;;;34.47;33.07;;;;;;;14.15;100.00;102078.81;5034415;28;20452;-41
2023/10/17 11:46:32;;;;;;;33.17;31.87;;;;;;;14.10;100.00;102083.91;5034351;28;21001;-43
2023/10/17 11:49:20;;;;;;;33.87;32.40;;;;;;;13.99;100.00;102081.69;5034579;28;20519;-41
2023/10/17 11:51:51;;;;;;;34.30;32.87;;;;;;;13.96;100.00;102080.22;5034488;28;20432;-41
2023/10/17 11:54:22;;;;;;;33.43;31.93;;;;;;;13.92;100.00;102080.81;5034903;28;20438;-43
2023/10/17 11:57:12;;;;;;;33.50;32.30;;;;;;;13.79;100.00;102081.44;5034779;28;20452;-42
2023/10/17 11:59:54;;;;;;;33.17;31.90;;;;;;;13.77;100.00;102083.47;5034494;28;21010;-43
2023/10/17 12:02:22;;;;;;;34.03;31.80;;;;;;;13.86;100.00;102080.50;5032552;28;20483;-43
2023/10/17 12:04:49;;;;;;;33.17;31.97;;;;;;;14.00;100.00;102076.16;5034419;28;20442;-47
2023/10/17 12:07:17;;;;;;;33.83;32.53;;;;;;;14.09;100.00;102074.22;5034706;28;20455;-44
2023/10/17 12:09:46;;;;;;;31.83;30.47;;;;;;;14.19;100.00;102072.88;5034400;28;20443;-44
2023/10/17 12:12:18;;;;;;;32.83;31.43;;;;;;;14.52;100.00;102070.59;5033990;28;20521;-43
2023/10/17 12:14:47;;;;;;;33.37;32.17;;;;;;;14.71;100.00;102063.78;5033997;28;21101;-42
2023/10/17 12:17:18;;;;;;;33.17;32.07;;;;;;;14.89;100.00;102067.69;5033717;28;20455;-41
2023/10/17 12:19:47;;;;;;;31.93;30.83;;;;;;;14.80;100.00;102059.94;5034039;28;21043;-41
2023/10/17 12:22:17;;;;;;;32.03;30.87;;;;;;;15.02;100.00;102058.94;5033878;28;20491;-42
2023/10/17 12:24:45;;;;;;;31.40;30.00;;;;;;;15.08;100.00;102062.69;5033776;28;20520;-44
2023/10/17 12:27:14;;;;;;;31.50;30.20;;;;;;;15.13;100.00;102055.72;5033856;28;20468;-45
2023/10/17 12:29:44;;;;;;;33.00;31.50;;;;;;;15.09;100.00;102054.41;5034062;28;20467;-44
2023/10/17 12:32:11;;;;;;;29.80;28.80;;;;;;;15.11;100.00;102055.06;5024321;28;20472;-42
2023/10/17 12:34:39;;;;;;;30.03;28.97;;;;;;;15.10;100.00;102050.72;5033500;28;20432;-41
2023/10/17 12:37:11;;;;;;;27.60;26.60;;;;;;;15.03;100.00;102044.44;5032678;28;20448;-41
2023/10/17 12:39:42;;;;;;;27.57;26.10;;;;;;;14.97;100.00;102050.59;5033926;28;20478;-42
2023/10/17 12:42:11;;;;;;;25.93;25.00;;;;;;;14.89;100.00;102054.25;5033550;28;20530;-48
2023/10/17 12:44:40;;;;;;;25.50;24.60;;;;;;;14.81;100.00;102050.88;5033478;28;20450;-44
2023/10/17 12:47:08;;;;;;;26.17;25.20;;;;;;;14.77;100.00;102047.75;5033178;28;20452;-44
2023/10/17 12:49:37;;;;;;;27.63;26.30;;;;;;;14.67;100.00;102049.91;5033361;28;20436;-41
2023/10/17 12:52:06;;;;;;;27.03;25.70;;;;;;;14.52;100.00;102054.50;5032999;28;20535;-42
2023/10/17 12:54:37;;;;;;;26.93;26.00;;;;;;;14.33;100.00;102047.91;5033360;28;20443;-39
2023/10/17 12:57:06;;;;;;;26.30;25.30;;;;;;;13.99;100.00;102054.88;5033380;28;20963;-46
2023/10/17 12:59:34;;;;;;;26.60;25.37;;;;;;;13.83;100.00;102054.06;5032999;28;20923;-40
2023/10/17 13:02:03;;;;;;;27.90;26.73;;;;;;;13.58;100.00;102052.69;5031397;28;20527;-41
2023/10/17 13:04:31;;;;;;;29.10;27.93;;;;;;;13.43;100.00;102059.06;5032840;28;20531;-40
2023/10/17 13:07:00;;;;;;;30.57;29.37;;;;;;;13.38;100.00;102051.53;5033223;28;20463;-41
2023/10/17 13:09:31;;;;;;;31.10;29.80;;;;;;;13.39;100.00;102061.25;5033149;28;20520;-44